createdAt,value
2023-02-08T00:01:25.567Z,42.60
2023-02-08T00:04:52.816Z,47.70
2023-02-08T00:08:20.495Z,47.90
2023-02-08T00:11:47.828Z,53.60
2023-02-08T00:15:15.327Z,46.90
2023-02-08T00:18:42.892Z,53.70
2023-02-08T00:22:10.569Z,51.70
2023-02-08T00:25:38.092Z,54.40
2023-02-08T00:29:05.196Z,56.50
2023-02-08T00:32:35.024Z,49.20
2023-02-08T00:36:03.934Z,51.90
2023-02-08T00:39:34.505Z,59.70
2023-02-08T00:43:04.797Z,56.90
2023-02-08T00:46:32.194Z,53.40
2023-02-08T00:49:59.966Z,48.60
2023-02-08T00:53:27.212Z,53.40
2023-02-08T00:56:54.778Z,56.20
2023-02-08T01:00:32.018Z,64.80
2023-02-08T01:04:02.343Z,63.10
2023-02-08T01:07:29.661Z,66.80
2023-02-08T01:11:02.831Z,70.90
2023-02-08T01:14:30.468Z,73.90
2023-02-08T01:17:59.487Z,59.40
2023-02-08T01:21:28.825Z,72.10
2023-02-08T01:24:56.294Z,70.50
2023-02-08T01:28:23.569Z,79.10
2023-02-08T01:31:51.099Z,72.40
2023-02-08T01:35:18.855Z,74.30
2023-02-08T01:38:46.788Z,85.30
2023-02-08T01:42:16.360Z,75.90
2023-02-08T01:45:44.473Z,79.00
2023-02-08T01:49:17.511Z,85.60
2023-02-08T01:52:48.577Z,81.10
2023-02-08T01:56:22.590Z,86.50
2023-02-08T01:59:55.571Z,83.10
2023-02-08T02:03:24.807Z,87.50
2023-02-08T02:06:54.632Z,86.10
2023-02-08T02:10:26.942Z,83.70
2023-02-08T02:13:54.469Z,95.40
2023-02-08T02:17:22.699Z,95.50
2023-02-08T02:21:06.000Z,92.80
2023-02-08T02:25:05.242Z,85.40
2023-02-08T02:32:27.658Z,88.20
2023-02-08T02:36:02.152Z,87.70
2023-02-08T02:39:39.202Z,97.00
2023-02-08T02:43:35.408Z,88.10
2023-02-08T02:47:11.874Z,96.10
2023-02-08T02:50:42.968Z,97.20
2023-02-08T02:54:19.458Z,101.30
2023-02-08T02:57:49.453Z,94.50
2023-02-08T03:01:26.029Z,110.80
2023-02-08T03:04:58.294Z,95.90
2023-02-08T03:08:43.708Z,97.00
2023-02-08T03:12:23.806Z,100.80
2023-02-08T03:16:02.311Z,104.00
2023-02-08T03:19:37.550Z,99.90
2023-02-08T03:23:16.245Z,91.40
2023-02-08T03:26:54.067Z,89.40
2023-02-08T03:30:29.182Z,102.70
2023-02-08T03:34:02.085Z,86.70
2023-02-08T03:37:32.990Z,85.00
2023-02-08T03:41:04.291Z,96.10
2023-02-08T03:44:39.208Z,84.80
2023-02-08T03:48:09.741Z,80.50
2023-02-08T03:51:40.727Z,79.90
2023-02-08T03:55:12.935Z,85.60
2023-02-08T03:58:46.389Z,71.30
2023-02-08T04:02:22.248Z,82.80
2023-02-08T04:05:50.794Z,79.00
2023-02-08T04:09:18.141Z,88.90
2023-02-08T04:12:46.746Z,87.20
2023-02-08T04:16:14.425Z,86.80
2023-02-08T04:19:42.259Z,84.90
2023-02-08T04:23:09.679Z,103.20
2023-02-08T04:26:36.996Z,89.40
2023-02-08T04:30:04.993Z,95.80
2023-02-08T04:33:32.275Z,95.00
2023-02-08T04:36:59.475Z,92.30
2023-02-08T04:40:26.876Z,92.00
2023-02-08T04:43:54.076Z,92.00
2023-02-08T04:47:21.493Z,94.10
2023-02-08T04:50:49.378Z,90.30
2023-02-08T04:54:16.647Z,94.00
2023-02-08T04:57:43.877Z,98.90
2023-02-08T05:01:12.073Z,89.80
2023-02-08T05:04:39.360Z,90.80
2023-02-08T05:08:08.349Z,84.80
2023-02-08T05:11:35.584Z,91.40
2023-02-08T05:15:02.788Z,88.30
2023-02-08T05:18:30.039Z,81.70
2023-02-08T05:21:57.265Z,93.70
2023-02-08T05:25:24.416Z,94.20
2023-02-08T05:28:51.772Z,90.50
2023-02-08T05:32:19.233Z,91.20
2023-02-08T05:35:47.106Z,90.10
2023-02-08T05:39:14.207Z,94.10
2023-02-08T05:42:42.541Z,87.80
2023-02-08T05:46:10.267Z,80.80
2023-02-08T05:49:37.561Z,97.60
2023-02-08T05:53:04.762Z,93.90
2023-02-08T05:56:32.562Z,91.60
2023-02-08T05:59:59.755Z,91.00
2023-02-08T06:03:27.067Z,122.70
2023-02-08T06:06:54.355Z,78.80
2023-02-08T06:10:21.884Z,132.70
2023-02-08T06:13:49.536Z,115.10
2023-02-08T06:17:17.030Z,88.90
2023-02-08T06:20:44.225Z,81.00
2023-02-08T06:24:12.110Z,81.80
2023-02-08T06:27:39.283Z,76.30
2023-02-08T06:31:07.153Z,77.10
2023-02-08T06:34:34.608Z,71.20
2023-02-08T06:38:01.970Z,70.00
2023-02-08T06:41:29.251Z,70.50
2023-02-08T06:44:59.486Z,71.30
2023-02-08T06:48:27.193Z,65.70
2023-02-08T06:52:02.104Z,67.60
2023-02-08T06:55:29.417Z,69.20
2023-02-08T06:58:57.437Z,66.30
2023-02-08T07:02:28.004Z,59.70
2023-02-08T07:06:04.452Z,57.50
2023-02-08T07:09:33.870Z,58.50
2023-02-08T07:13:02.769Z,52.00
2023-02-08T07:16:30.291Z,50.90
2023-02-08T07:19:57.485Z,78.70
2023-02-08T07:23:24.987Z,49.90
2023-02-08T07:26:52.260Z,48.00
2023-02-08T07:30:20.014Z,42.80
2023-02-08T07:33:47.615Z,48.80
2023-02-08T07:37:15.164Z,33.50
2023-02-08T07:40:42.937Z,35.40
2023-02-08T07:44:10.488Z,31.90
2023-02-08T07:47:37.688Z,29.00
2023-02-08T07:51:05.446Z,30.90
2023-02-08T07:54:32.884Z,34.00
2023-02-08T07:58:03.324Z,34.70
2023-02-08T08:01:30.844Z,39.60
2023-02-08T08:04:58.344Z,37.20
2023-02-08T08:08:25.560Z,33.10
2023-02-08T08:11:52.701Z,28.40
2023-02-08T08:15:20.138Z,32.60
2023-02-08T08:18:47.294Z,31.50
2023-02-08T08:22:17.605Z,28.70
2023-02-08T08:25:44.830Z,31.50
2023-02-08T08:29:12.021Z,36.20
2023-02-08T08:32:41.843Z,31.70
2023-02-08T08:36:10.425Z,33.00
2023-02-08T08:39:38.055Z,26.60
2023-02-08T08:43:05.264Z,24.40
2023-02-08T08:46:32.526Z,27.30
2023-02-08T08:49:59.897Z,30.30
2023-02-08T08:53:27.407Z,25.10
2023-02-08T08:56:54.702Z,28.20
2023-02-08T09:00:25.377Z,25.00
2023-02-08T09:03:52.879Z,26.80
2023-02-08T09:10:50.559Z,57.20
2023-02-08T09:14:17.823Z,26.10
2023-02-08T09:17:45.736Z,31.70
2023-02-08T09:21:24.721Z,29.70
2023-02-08T09:24:53.547Z,48.60
2023-02-08T09:28:20.783Z,27.90
2023-02-08T09:31:47.970Z,24.70
2023-02-08T09:35:25.265Z,28.00
2023-02-08T09:38:57.936Z,29.20
2023-02-08T09:42:35.932Z,35.60
2023-02-08T09:46:09.464Z,29.80
2023-02-08T09:50:03.676Z,28.40
2023-02-08T09:53:36.220Z,25.60
2023-02-08T09:57:07.459Z,31.00
2023-02-08T10:00:42.354Z,30.20
2023-02-08T10:04:17.291Z,26.30
2023-02-08T10:07:47.908Z,28.70
2023-02-08T10:11:36.489Z,26.20
2023-02-08T10:15:17.106Z,40.50
2023-02-08T10:18:51.012Z,29.40
2023-02-08T10:22:29.789Z,24.90
2023-02-08T10:26:14.525Z,30.80
2023-02-08T10:29:56.579Z,27.80
2023-02-08T10:33:31.445Z,26.60
2023-02-08T10:37:01.131Z,28.90
2023-02-08T10:44:14.763Z,29.10
2023-02-08T10:47:56.266Z,23.60
2023-02-08T10:51:24.142Z,25.90
2023-02-08T10:54:55.416Z,26.30
2023-02-08T10:58:26.374Z,24.90
2023-02-08T11:01:54.396Z,26.20
2023-02-08T11:05:32.297Z,27.60
2023-02-08T11:08:59.718Z,30.90
2023-02-08T11:12:26.867Z,32.00
2023-02-08T11:15:57.364Z,46.60
2023-02-08T11:19:35.528Z,40.30
2023-02-08T11:23:03.784Z,38.30
2023-02-08T11:26:38.532Z,31.40
2023-02-08T11:30:25.238Z,29.30
2023-02-08T11:34:06.716Z,27.50
2023-02-08T11:37:34.268Z,29.80
2023-02-08T11:41:03.715Z,27.50
2023-02-08T11:44:47.301Z,26.50
2023-02-08T11:48:37.494Z,30.60
2023-02-08T11:52:06.075Z,28.50
2023-02-08T11:55:35.463Z,26.20
2023-02-08T11:59:06.811Z,26.50
2023-02-08T12:02:39.212Z,26.60
2023-02-08T12:06:27.037Z,28.30
2023-02-08T12:10:28.371Z,27.20
2023-02-08T12:14:26.531Z,32.60
2023-02-08T12:18:15.358Z,36.60
2023-02-08T12:21:46.545Z,36.80
2023-02-08T12:25:30.159Z,39.50
2023-02-08T12:29:15.127Z,42.50
2023-02-08T12:32:57.791Z,40.00
2023-02-08T12:36:36.306Z,49.40
2023-02-08T12:40:37.797Z,43.80
2023-02-08T12:44:14.934Z,43.50
2023-02-08T12:48:03.764Z,42.00
2023-02-08T12:51:47.776Z,43.70
2023-02-08T12:55:22.663Z,44.20
2023-02-08T12:58:58.992Z,47.40
2023-02-08T13:02:34.276Z,47.50
2023-02-08T13:06:05.469Z,40.40
2023-02-08T13:09:41.547Z,37.40
2023-02-08T13:13:17.529Z,45.90
2023-02-08T13:16:47.668Z,42.00
2023-02-08T13:20:28.889Z,36.60
2023-02-08T13:23:58.007Z,41.30
2023-02-08T13:27:25.904Z,38.50
2023-02-08T13:31:00.922Z,40.40
2023-02-08T13:34:36.562Z,38.50
2023-02-08T13:38:07.425Z,39.30
2023-02-08T13:41:36.458Z,37.80
2023-02-08T13:45:06.524Z,54.20
2023-02-08T13:48:45.302Z,57.40
2023-02-08T13:52:13.300Z,55.90
2023-02-08T13:55:57.285Z,57.30
2023-02-08T13:59:37.219Z,57.60
2023-02-08T14:03:21.825Z,54.10
2023-02-08T14:06:55.661Z,51.30
2023-02-08T14:10:37.472Z,54.40
2023-02-08T14:14:14.790Z,52.40
2023-02-08T14:17:45.776Z,63.80
2023-02-08T14:21:32.195Z,56.70
2023-02-08T14:25:09.750Z,71.50
2023-02-08T14:28:45.047Z,61.90
2023-02-08T14:32:23.439Z,64.80
2023-02-08T14:35:58.296Z,76.30
2023-02-08T14:39:30.370Z,74.40
2023-02-08T14:43:01.207Z,86.20
2023-02-08T14:46:47.470Z,63.00
2023-02-08T14:50:20.299Z,60.00
2023-02-08T14:53:53.700Z,52.70
2023-02-08T14:57:28.126Z,59.40
2023-02-08T15:00:58.230Z,78.10
2023-02-08T15:04:25.971Z,95.10
2023-02-08T15:07:59.017Z,77.10
2023-02-08T15:11:28.821Z,72.10
2023-02-08T15:14:59.042Z,90.00
2023-02-08T15:18:33.285Z,93.50
2023-02-08T15:22:19.979Z,155.10
2023-02-08T15:25:55.604Z,105.50
2023-02-08T15:29:39.056Z,137.00
2023-02-08T15:33:18.023Z,104.90
2023-02-08T15:36:52.763Z,168.50
2023-02-08T15:44:18.995Z,137.90
2023-02-08T15:47:46.485Z,108.40
2023-02-08T15:51:16.246Z,124.70
2023-02-08T15:54:48.178Z,111.30
2023-02-08T15:58:28.739Z,217.20
2023-02-08T16:01:57.312Z,293.60
2023-02-08T16:05:27.553Z,264.40
2023-02-08T16:08:57.939Z,310.00
2023-02-08T16:12:27.524Z,289.10
2023-02-08T16:19:35.944Z,239.80
2023-02-08T16:23:05.149Z,154.90
2023-02-08T16:26:36.898Z,135.80
2023-02-08T16:30:04.262Z,120.60
2023-02-08T16:33:32.971Z,118.40
2023-02-08T16:37:01.100Z,102.30
2023-02-08T16:40:51.574Z,149.00
2023-02-08T16:44:28.037Z,246.80
2023-02-08T16:48:36.076Z,164.20
2023-02-08T16:52:03.415Z,152.90
2023-02-08T16:55:34.791Z,168.40
2023-02-08T16:59:02.214Z,156.80
2023-02-08T17:02:29.454Z,140.30
2023-02-08T17:05:57.351Z,131.00
2023-02-08T17:09:24.510Z,198.60
2023-02-08T17:12:52.980Z,245.60
2023-02-08T17:16:24.754Z,164.20
2023-02-08T17:20:03.443Z,141.50
2023-02-08T17:23:38.253Z,158.70
2023-02-08T17:27:05.630Z,169.80
2023-02-08T17:30:36.217Z,187.00
2023-02-08T17:34:05.323Z,195.70
2023-02-08T17:37:32.641Z,197.20
2023-02-08T17:41:05.872Z,206.90
2023-02-08T17:44:34.148Z,192.10
2023-02-08T17:48:13.618Z,165.80
2023-02-08T17:51:41.921Z,161.80
2023-02-08T17:55:12.715Z,219.10
2023-02-08T17:58:40.495Z,193.20
2023-02-08T18:02:08.849Z,238.50
2023-02-08T18:05:38.974Z,169.80
2023-02-08T18:09:06.390Z,181.00
2023-02-08T18:12:35.371Z,199.50
2023-02-08T18:16:10.065Z,224.90
2023-02-08T18:19:38.353Z,214.50
2023-02-08T18:23:05.741Z,256.90
2023-02-08T18:26:36.789Z,217.70
2023-02-08T18:30:04.140Z,206.70
2023-02-08T18:33:31.719Z,230.20
2023-02-08T18:37:02.332Z,220.90
2023-02-08T18:40:31.357Z,208.10
2023-02-08T18:44:00.660Z,183.10
2023-02-08T18:47:27.954Z,221.20
2023-02-08T18:50:59.174Z,202.60
2023-02-08T18:54:26.640Z,218.80
2023-02-08T18:57:53.894Z,225.90
2023-02-08T19:01:23.333Z,225.70
2023-02-08T19:11:47.261Z,257.00
2023-02-08T19:15:14.485Z,275.20
2023-02-08T19:18:41.809Z,283.90
2023-02-08T19:22:09.080Z,277.70
2023-02-08T19:25:39.904Z,261.60
2023-02-08T19:29:09.266Z,270.10
2023-02-08T19:32:36.513Z,272.90
2023-02-08T19:36:09.535Z,223.90
2023-02-08T19:39:36.950Z,248.30
2023-02-08T19:43:04.321Z,203.00
2023-02-08T19:46:33.073Z,208.20
2023-02-08T19:50:00.531Z,205.00
2023-02-08T19:53:28.449Z,217.10
2023-02-08T19:56:56.071Z,214.70
2023-02-08T20:00:25.811Z,226.50
2023-02-08T20:03:54.475Z,216.10
2023-02-08T20:07:21.685Z,211.30
2023-02-08T20:10:50.741Z,219.60
2023-02-08T20:17:44.805Z,202.40
2023-02-08T20:21:12.685Z,162.70
2023-02-08T20:24:40.053Z,156.10
2023-02-08T20:28:07.976Z,142.80
2023-02-08T20:31:37.307Z,142.20
2023-02-08T20:35:04.787Z,144.30
2023-02-08T20:38:32.243Z,160.50
2023-02-08T20:41:59.420Z,152.40
2023-02-08T20:45:27.480Z,156.10
2023-02-08T20:48:56.506Z,159.20
2023-02-08T20:52:23.575Z,167.50
2023-02-08T20:55:50.850Z,159.90
2023-02-08T20:59:18.280Z,181.70
2023-02-08T21:02:45.761Z,211.80
2023-02-08T21:06:18.435Z,190.70
2023-02-08T21:09:46.110Z,191.50
2023-02-08T21:13:13.435Z,191.80
2023-02-08T21:16:41.234Z,187.50
2023-02-08T21:20:10.148Z,210.60
2023-02-08T21:23:38.643Z,287.70
2023-02-08T21:27:06.770Z,253.40
2023-02-08T21:30:34.008Z,281.60
2023-02-08T21:34:03.102Z,258.70
2023-02-08T21:37:30.299Z,231.80
2023-02-08T21:40:57.614Z,253.60
2023-02-08T21:44:24.825Z,267.00
2023-02-08T21:47:52.281Z,247.50
2023-02-08T21:51:37.443Z,269.40
2023-02-08T21:55:04.807Z,228.50
2023-02-08T21:58:32.246Z,228.30
2023-02-08T22:01:59.588Z,246.90
2023-02-08T22:05:26.896Z,228.30
2023-02-08T22:08:54.449Z,238.90
2023-02-08T22:12:23.537Z,241.20
2023-02-08T22:15:50.972Z,230.50
2023-02-08T22:19:18.880Z,229.70
2023-02-08T22:22:46.547Z,212.70
2023-02-08T22:26:16.585Z,217.00
2023-02-08T22:29:43.936Z,197.70
2023-02-08T22:33:13.925Z,220.20
2023-02-08T22:36:50.451Z,198.10
2023-02-08T22:40:17.753Z,206.60
2023-02-08T22:43:45.470Z,199.30
2023-02-08T22:47:14.298Z,194.20
2023-02-08T22:50:41.661Z,185.70
2023-02-08T22:54:09.194Z,180.50
2023-02-08T22:57:39.412Z,185.20
2023-02-08T23:01:12.969Z,192.60
2023-02-08T23:04:42.648Z,177.30
2023-02-08T23:08:14.162Z,187.20
2023-02-08T23:11:41.464Z,178.60
2023-02-08T23:15:11.220Z,199.20
2023-02-08T23:18:39.454Z,207.30
2023-02-08T23:22:06.929Z,194.80
2023-02-08T23:25:34.284Z,225.00
2023-02-08T23:29:01.611Z,212.30
2023-02-08T23:32:29.003Z,206.10
2023-02-08T23:35:58.835Z,204.20
2023-02-08T23:39:28.739Z,186.00
2023-02-08T23:42:56.202Z,205.30
2023-02-08T23:46:24.940Z,181.80
2023-02-08T23:49:55.934Z,181.90
2023-02-08T23:53:23.322Z,196.20
2023-02-08T23:56:52.142Z,193.20
